KOLS

Nogales

Airport
ICAO code
KOLS
Summary
ICAO Region
NAM
ICAO Territory
Location

Nogales, Santa Cruz County, Arizona,

Coordinates
31° 25' 5" N , 110° 50' 58" W
KCC
BSk
Airport CFIT
Altimeter Temperature Error Correction
Airport RE
Hot and High Operations
Metar
Observation
KOLS 170954Z AUTO 03006KT 10SM FEW070 19/16 A3002 RMK AO2 RAB0856E33 SLP097 P0001 T01890161 $
Station
Nogales, Nogales International Airport
Date/Time
2022-08-17 09:54:00
Wind direction
30°
Wind speed
06 kts
Lowest cloud amount
few clouds
Temperature
18.9°C
Dew point
16.1°C
Humidity
83%
Weather condition
n/a

Description

Nogales International Airport is a county-owned public-use airport located 7 nm northeast of the central business district of Nogales, a city in Santa Cruz County, Arizona, United States.

Climatology

Cold Semi-arid climate (Köppen climate classification BSk). - Hot, sometimes extremely hot summers and cold, sometimes very cold winters. Some snowfall during the winter. Areas featuring cold semi-arid climates are sometimes subject to major temperature swings during a 24 hour period.

Runways

Designator Length Width Surface Rops
3/21 2194 27 ASP No/No

Airport map

Aerial View

Airport accidents

SKYbrary Partners:

Safety knowledge contributed by: